Time;durP1;ratioP1;P1;durP2;ratioP2;P2;SDS_P1;SDS_P2;PMS_P1;PMS_P2;Temp;Humidity;BMP_temperature;BMP_pressure;BME280_temperature;BME280_humidity;BME280_pressure;Samples;Min_cycle;Max_cycle;Signal;HPM_P1;HPM_P2
2023/09/11 00:01:19;;;;;;;6.18;5.45;;;22.20;77.30;;;;;;5031235;28;20487;-28
2023/09/11 00:03:47;;;;;;;5.75;5.25;;;23.00;87.70;;;;;;5032792;28;20502;-29
2023/09/11 00:06:14;;;;;;;6.30;5.70;;;22.90;82.50;;;;;;5032733;28;20080;-28
2023/09/11 00:08:41;;;;;;;6.60;5.50;;;23.50;88.00;;;;;;5031385;28;20054;-28
2023/09/11 00:11:07;;;;;;;6.35;5.72;;;22.70;79.00;;;;;;5032461;28;20554;-29
2023/09/11 00:13:34;;;;;;;7.38;5.78;;;23.10;87.70;;;;;;5032626;28;20124;-29
2023/09/11 00:16:01;;;;;;;6.40;5.80;;;22.90;87.00;;;;;;5032724;28;20132;-29
2023/09/11 00:18:29;;;;;;;8.20;6.00;;;22.80;71.20;;;;;;5032479;28;20124;-29
2023/09/11 00:20:56;;;;;;;6.68;5.97;;;;;;;;;;5032424;28;20127;-29
2023/09/11 00:23:23;;;;;;;6.70;6.00;;;22.80;86.90;;;;;;5032439;28;20049;-28
2023/09/11 00:25:49;;;;;;;6.57;5.97;;;;;;;;;;5032087;28;20059;-30
2023/09/11 00:28:16;;;;;;;6.90;6.10;;;;;;;;;;5032566;28;20041;-31
2023/09/11 00:30:43;;;;;;;6.85;6.10;;;22.70;87.10;;;;;;5032123;28;20140;-29
2023/09/11 00:33:10;;;;;;;6.82;5.90;;;;;;;;;;5032656;28;20079;-28
2023/09/11 00:35:38;;;;;;;6.47;5.88;;;22.80;71.20;;;;;;5032010;28;20084;-28
2023/09/11 00:38:05;;;;;;;6.32;5.72;;;22.30;86.80;;;;;;5031695;28;20144;-29
2023/09/11 00:40:32;;;;;;;6.68;5.97;;;;;;;;;;5032280;28;20053;-28
2023/09/11 00:42:58;;;;;;;6.78;5.63;;;23.90;83.20;;;;;;5034791;28;20132;-29
2023/09/11 00:45:25;;;;;;;6.65;5.95;;;22.80;86.80;;;;;;5035923;28;20124;-29
2023/09/11 00:47:52;;;;;;;5.85;5.35;;;23.10;87.00;;;;;;5032028;28;20136;-29
2023/09/11 00:50:18;;;;;;;6.93;5.82;;;22.50;78.60;;;;;;5031708;28;20042;-29
2023/09/11 00:52:47;;;;;;;6.47;5.85;;;22.80;87.10;;;;;;5031909;28;20124;-29
2023/09/11 00:55:13;;;;;;;6.68;5.85;;;23.20;74.10;;;;;;5032180;28;20140;-29
2023/09/11 00:57:40;;;;;;;6.78;5.38;;;22.70;73.50;;;;;;5031589;28;20576;-28
2023/09/11 01:00:09;;;;;;;5.75;5.15;;;22.60;80.80;;;;;;5031643;28;20128;-29
2023/09/11 01:02:35;;;;;;;6.30;5.70;;;22.70;87.00;;;;;;5031933;28;20057;-29
2023/09/11 01:05:07;;;;;;;6.35;5.75;;;22.70;87.10;;;;;;5031903;28;20168;-28
2023/09/11 01:07:33;;;;;;;6.70;6.00;;;22.20;86.40;;;;;;5031751;28;20521;-29
2023/09/11 01:10:05;;;;;;;7.55;5.60;;;22.70;86.80;;;;;;5031523;28;20137;-29
2023/09/11 01:12:32;;;;;;;5.97;5.45;;;22.90;86.80;;;;;;5031970;28;20046;-29
2023/09/11 01:14:59;;;;;;;6.15;5.55;;;;;;;;;;5031459;28;20183;-30
2023/09/11 01:17:32;;;;;;;7.90;5.90;;;22.70;86.70;;;;;;5031456;28;20136;-29
2023/09/11 01:20:38;;;;;;;7.07;5.68;;;22.70;71.10;;;;;;5031470;28;20064;-29
2023/09/11 01:23:21;;;;;;;6.70;6.03;;;22.70;71.20;;;;;;5014154;28;20399;-29
2023/09/11 01:26:07;;;;;;;6.78;6.07;;;22.70;71.20;;;;;;5035598;28;20136;-30
2023/09/11 01:29:02;;;;;;;6.10;5.50;;;22.70;71.20;;;;;;5035620;28;20137;-29
2023/09/11 01:31:29;;;;;;;6.50;5.88;;;;;;;;;;5035393;28;20058;-29
2023/09/11 01:33:56;;;;;;;6.85;5.97;;;;;;;;;;5035626;28;20132;-30
2023/09/11 01:36:23;;;;;;;6.43;5.72;;;23.80;87.50;;;;;;5034712;28;20124;-28
2023/09/11 01:38:49;;;;;;;7.30;5.68;;;22.10;86.50;;;;;;5035116;28;20128;-29
2023/09/11 01:41:16;;;;;;;6.85;5.70;;;22.50;74.20;;;;;;5035273;28;20128;-29
2023/09/11 01:43:43;;;;;;;6.45;5.80;;;23.40;87.40;;;;;;5044410;28;20124;-29
2023/09/11 01:46:11;;;;;;;6.28;5.68;;;22.70;87.10;;;;;;5052924;28;20132;-29
2023/09/11 01:48:38;;;;;;;5.93;5.32;;;22.60;86.80;;;;;;5035291;28;20474;-29
2023/09/11 01:51:04;;;;;;;6.07;5.53;;;21.90;73.10;;;;;;5035080;28;20141;-29
2023/09/11 01:53:31;;;;;;;6.60;5.90;;;;;;;;;;5035240;28;20454;-28
2023/09/11 01:55:59;;;;;;;6.93;5.68;;;;;;;;;;5035133;28;20132;-30
2023/09/11 01:58:25;;;;;;;6.68;5.97;;;21.90;87.00;;;;;;5035221;28;20046;-28
2023/09/11 02:00:52;;;;;;;6.03;5.43;;;22.50;86.50;;;;;;5035067;28;20679;-29
2023/09/11 02:03:20;;;;;;;6.50;5.90;;;22.60;77.00;;;;;;5034843;28;20128;-29
2023/09/11 02:05:47;;;;;;;6.55;5.95;;;23.20;75.20;;;;;;5034748;28;20565;-29
2023/09/11 02:08:14;;;;;;;6.45;5.78;;;;;;;;;;5035191;28;20124;-29
2023/09/11 02:10:40;;;;;;;6.90;5.63;;;23.40;87.00;;;;;;5034947;28;20137;-29
2023/09/11 02:13:08;;;;;;;7.90;5.65;;;23.10;83.10;;;;;;5034904;28;20557;-29
2023/09/11 02:15:35;;;;;;;6.70;5.50;;;;;;;;;;5034583;28;20121;-30
2023/09/11 02:18:02;;;;;;;6.72;5.60;;;22.70;86.70;;;;;;5034723;28;20510;-29
2023/09/11 02:20:30;;;;;;;6.55;5.85;;;22.60;86.80;;;;;;5033252;28;20132;-28
2023/09/11 02:22:57;;;;;;;6.95;5.55;;;;;;;;;;5035037;28;20477;-29
2023/09/11 02:25:23;;;;;;;7.15;5.90;;;22.60;76.30;;;;;;5034361;28;20148;-29
2023/09/11 02:27:50;;;;;;;7.60;5.95;;;22.40;87.30;;;;;;5034628;28;20136;-29
2023/09/11 02:30:17;;;;;;;6.63;5.90;;;23.50;87.30;;;;;;5034454;28;20577;-29
2023/09/11 02:32:43;;;;;;;6.65;5.80;;;22.10;74.90;;;;;;5034561;28;20582;-29
2023/09/11 02:35:10;;;;;;;6.15;5.55;;;;;;;;;;5034077;28;20132;-29
2023/09/11 02:37:39;;;;;;;6.57;5.97;;;23.90;72.40;;;;;;5034048;28;20137;-29
2023/09/11 02:40:07;;;;;;;6.63;5.45;;;23.10;86.90;;;;;;5034468;28;20478;-29
2023/09/11 02:42:34;;;;;;;6.40;5.75;;;;;;;;;;5034451;28;20045;-30
2023/09/11 02:45:00;;;;;;;6.55;5.80;;;22.80;73.90;;;;;;5044877;28;20140;-29
2023/09/11 02:47:27;;;;;;;6.30;5.70;;;22.30;86.90;;;;;;5034001;28;20128;-29
2023/09/11 02:49:54;;;;;;;6.18;5.57;;;;;;;;;;5034366;28;20128;-29
2023/09/11 02:52:21;;;;;;;6.40;5.40;;;21.50;86.00;;;;;;5034060;28;20058;-29
2023/09/11 02:54:49;;;;;;;5.63;5.13;;;23.00;87.80;;;;;;5034076;28;20707;-28
2023/09/11 02:57:16;;;;;;;7.10;5.65;;;22.50;86.60;;;;;;5034084;28;20132;-29
2023/09/11 02:59:42;;;;;;;6.22;5.57;;;22.30;74.80;;;;;;5033852;28;20582;-28
2023/09/11 03:02:10;;;;;;;6.47;5.75;;;23.00;84.50;;;;;;5033845;28;20240;-29
2023/09/11 03:04:36;;;;;;;6.05;5.43;;;22.60;79.60;;;;;;5034211;28;20072;-29
2023/09/11 03:07:03;;;;;;;6.30;5.68;;;22.80;87.50;;;;;;5033990;28;20132;-29
2023/09/11 03:09:30;;;;;;;7.45;5.68;;;22.10;87.20;;;;;;5033679;28;20148;-29
2023/09/11 03:11:58;;;;;;;7.32;5.38;;;22.30;78.70;;;;;;5033635;28;20565;-29
2023/09/11 03:14:25;;;;;;;6.40;5.80;;;;;;;;;;5033511;28;20136;-29
2023/09/11 03:16:52;;;;;;;5.95;5.38;;;22.30;86.50;;;;;;5033534;28;20128;-29
2023/09/11 03:19:19;;;;;;;6.38;5.55;;;;;;;;;;5033918;28;20049;-30
2023/09/11 03:21:46;;;;;;;8.95;5.70;;;21.60;86.10;;;;;;5033548;28;20141;-29
2023/09/11 03:24:12;;;;;;;6.63;5.50;;;22.70;83.00;;;;;;5033511;28;20566;-29
2023/09/11 03:26:40;;;;;;;6.25;5.65;;;;;;;;;;5033377;28;20136;-30
2023/09/11 03:29:08;;;;;;;6.15;5.25;;;22.50;70.90;;;;;;5033461;28;20388;-30
2023/09/11 03:31:35;;;;;;;8.23;6.10;;;22.70;87.50;;;;;;5032926;28;20129;-29
2023/09/11 03:34:02;;;;;;;6.13;5.53;;;21.60;86.10;;;;;;5033626;28;20077;-29
2023/09/11 03:36:29;;;;;;;7.82;6.00;;;;;;;;;;5032604;28;20560;-28
2023/09/11 03:38:56;;;;;;;6.95;5.72;;;22.30;83.00;;;;;;5033013;28;20477;-29
2023/09/11 03:41:22;;;;;;;7.20;5.50;;;23.10;84.00;;;;;;5033227;28;20134;-29
2023/09/11 03:43:49;;;;;;;6.72;6.03;;;22.60;87.10;;;;;;5042758;28;20188;-29
2023/09/11 03:46:17;;;;;;;5.75;5.22;;;22.80;77.90;;;;;;5052124;28;20136;-29
2023/09/11 03:48:44;;;;;;;6.35;5.75;;;22.50;76.50;;;;;;5032713;28;20072;-29
2023/09/11 03:51:10;;;;;;;7.82;5.65;;;22.70;86.80;;;;;;5032982;28;20128;-29
2023/09/11 03:53:42;;;;;;;6.47;5.15;;;22.70;86.80;;;;;;5032997;28;20136;-29
2023/09/11 03:56:09;;;;;;;6.85;5.80;;;;;;;;;;5032907;28;20077;-29
2023/09/11 03:58:36;;;;;;;6.90;5.63;;;22.40;75.20;;;;;;5031568;28;20502;-29
2023/09/11 04:01:03;;;;;;;6.57;5.68;;;22.00;86.50;;;;;;5032895;28;20128;-29
2023/09/11 04:03:31;;;;;;;7.00;5.57;;;22.10;86.60;;;;;;5032418;28;20128;-29
2023/09/11 04:05:57;;;;;;;5.78;5.18;;;23.00;87.70;;;;;;5013057;28;20136;-29
2023/09/11 04:08:25;;;;;;;6.80;6.13;;;;;;;;;;5013091;28;20132;-29
2023/09/11 04:10:51;;;;;;;6.50;5.88;;;22.50;86.70;;;;;;5012748;28;20129;-28
2023/09/11 04:13:18;;;;;;;5.88;5.38;;;;;;;;;;5012882;28;20121;-29
2023/09/11 04:15:45;;;;;;;6.13;5.20;;;22.00;87.20;;;;;;5012777;28;20579;-28
2023/09/11 04:18:12;;;;;;;6.85;5.72;;;22.40;87.60;;;;;;5013017;28;20076;-29
2023/09/11 04:20:40;;;;;;;6.50;5.80;;;22.40;70.90;;;;;;5030173;28;20128;-29
2023/09/11 04:23:07;;;;;;;6.15;5.55;;;;;;;;;;5032458;28;20132;-30
2023/09/11 04:25:34;;;;;;;6.30;5.60;;;22.10;86.60;;;;;;5032429;28;20129;-29
2023/09/11 04:28:01;;;;;;;6.93;5.45;;;21.80;74.00;;;;;;5032426;28;20107;-29
2023/09/11 04:30:28;;;;;;;6.30;5.70;;;22.40;86.70;;;;;;5032386;28;20133;-29
2023/09/11 04:32:54;;;;;;;7.55;5.75;;;21.30;86.10;;;;;;5032573;28;20132;-29
2023/09/11 04:35:23;;;;;;;6.43;5.80;;;;;;;;;;5032056;28;20128;-30
2023/09/11 04:37:51;;;;;;;6.28;5.60;;;22.20;86.80;;;;;;5035279;28;20037;-29
2023/09/11 04:40:18;;;;;;;7.72;5.60;;;21.50;86.10;;;;;;5032112;28;20088;-29
2023/09/11 04:42:45;;;;;;;7.40;6.05;;;;;;;;;;5032246;28;20473;-30
2023/09/11 04:45:12;;;;;;;8.80;6.32;;;22.70;86.70;;;;;;5029383;28;20084;-29
2023/09/11 04:47:39;;;;;;;7.13;6.10;;;22.80;86.80;;;;;;5031677;28;20136;-28
2023/09/11 04:50:06;;;;;;;8.40;5.80;;;;;;;;;;5031661;28;20045;-31
2023/09/11 04:52:33;;;;;;;6.43;5.65;;;22.00;87.10;;;;;;5031781;28;20045;-29
2023/09/11 04:55:01;;;;;;;6.05;5.45;;;22.40;70.70;;;;;;5031506;28;20613;-30
2023/09/11 04:57:28;;;;;;;6.80;6.10;;;;;;;;;;5031690;28;20139;-28
2023/09/11 04:59:54;;;;;;;11.75;7.45;;;22.30;86.80;;;;;;5030706;28;20080;-29
2023/09/11 05:02:21;;;;;;;6.80;6.03;;;22.60;86.80;;;;;;5031625;28;20129;-28
2023/09/11 05:04:48;;;;;;;6.85;6.15;;;;;;;;;;5031669;28;20137;-29
2023/09/11 05:07:15;;;;;;;6.53;5.85;;;22.10;86.30;;;;;;5031380;28;20129;-29
2023/09/11 05:09:42;;;;;;;7.57;6.00;;;22.70;87.00;;;;;;5032063;28;20109;-29
2023/09/11 05:12:10;;;;;;;6.68;5.28;;;21.70;77.40;;;;;;5031836;28;20132;-29
2023/09/11 05:14:36;;;;;;;7.05;5.57;;;23.60;80.50;;;;;;5031988;28;20052;-29
2023/09/11 05:17:03;;;;;;;7.45;6.15;;;21.90;86.20;;;;;;5031670;28;20141;-29
2023/09/11 05:19:30;;;;;;;6.38;5.78;;;;;;;;;;5031891;28;20136;-31
2023/09/11 05:21:57;;;;;;;9.15;5.85;;;22.20;86.40;;;;;;5031424;28;20112;-29
2023/09/11 05:24:25;;;;;;;8.00;6.30;;;;;;;;;;5032126;28;20045;-31
2023/09/11 05:26:51;;;;;;;6.72;5.38;;;22.10;87.10;;;;;;5031719;28;20136;-31
2023/09/11 05:29:19;;;;;;;6.45;5.63;;;22.10;87.10;;;;;;5030777;28;20133;-31
2023/09/11 05:31:46;;;;;;;6.95;5.50;;;22.30;86.40;;;;;;5031083;28;20125;-31
2023/09/11 05:34:13;;;;;;;7.97;6.03;;;22.40;70.50;;;;;;5031263;28;20124;-30
2023/09/11 05:36:40;;;;;;;6.78;6.07;;;23.10;86.90;;;;;;5024330;28;20128;-31
2023/09/11 05:39:08;;;;;;;6.85;5.57;;;;;;;;;;5026924;28;20120;-30
2023/09/11 05:41:35;;;;;;;6.03;5.43;;;22.30;86.40;;;;;;5027866;28;20049;-31
2023/09/11 05:44:02;;;;;;;7.25;6.25;;;22.30;86.50;;;;;;5033025;28;20049;-31
2023/09/11 05:46:30;;;;;;;7.00;5.88;;;22.60;86.80;;;;;;5031769;28;20045;-31
2023/09/11 05:48:57;;;;;;;7.43;5.82;;;22.60;86.50;;;;;;5028657;28;20737;-31
2023/09/11 05:51:23;;;;;;;7.95;5.90;;;22.30;77.00;;;;;;5022330;28;20131;-31
2023/09/11 05:53:50;;;;;;;6.25;5.43;;;22.00;86.30;;;;;;5029940;28;20566;-31
2023/09/11 05:56:17;;;;;;;6.40;5.40;;;21.80;86.50;;;;;;5046142;28;20149;-31
2023/09/11 05:58:44;;;;;;;9.57;5.70;;;22.30;78.50;;;;;;5051452;28;20045;-31
2023/09/11 06:01:13;;;;;;;9.35;5.80;;;22.30;86.60;;;;;;5051225;28;20127;-31
2023/09/11 06:03:41;;;;;;;8.55;5.75;;;22.20;80.10;;;;;;5051404;28;20099;-31
2023/09/11 06:06:08;;;;;;;7.70;5.65;;;22.10;77.80;;;;;;5050981;28;20132;-31
2023/09/11 06:08:35;;;;;;;7.95;5.63;;;22.30;86.30;;;;;;5046901;28;20084;-31
2023/09/11 06:11:02;;;;;;;6.35;5.75;;;;;;;;;;5033960;28;20133;-31
2023/09/11 06:13:31;;;;;;;8.40;5.90;;;21.50;74.10;;;;;;5034963;28;20486;-31
2023/09/11 06:15:58;;;;;;;8.60;6.03;;;;;;;;;;5031698;28;20049;-31
2023/09/11 06:18:25;;;;;;;7.80;5.90;;;22.00;87.00;;;;;;5021041;28;20133;-31
2023/09/11 06:20:53;;;;;;;7.05;5.47;;;22.30;86.40;;;;;;5015173;28;20137;-31
2023/09/11 06:23:19;;;;;;;6.68;5.63;;;22.10;74.70;;;;;;5015308;28;20132;-31
2023/09/11 06:25:46;;;;;;;6.63;5.50;;;;;;;;;;5027749;28;20136;-30
2023/09/11 06:28:13;;;;;;;6.65;5.38;;;22.10;87.10;;;;;;5033944;28;20136;-31
2023/09/11 06:30:40;;;;;;;7.65;5.50;;;22.10;86.40;;;;;;5034412;28;20129;-31
2023/09/11 06:33:07;;;;;;;7.45;5.78;;;;;;;;;;5033988;28;20125;-30
2023/09/11 06:35:33;;;;;;;7.95;5.85;;;22.60;86.90;;;;;;5033056;28;20130;-31
2023/09/11 06:38:01;;;;;;;6.07;5.47;;;23.00;86.90;;;;;;5033841;28;20679;-31
2023/09/11 06:40:28;;;;;;;6.07;5.25;;;22.70;87.50;;;;;;5033342;28;20121;-31
2023/09/11 06:42:55;;;;;;;5.75;5.07;;;22.70;79.30;;;;;;5034049;28;20465;-31
2023/09/11 06:45:22;;;;;;;6.43;5.38;;;22.80;86.80;;;;;;5031896;28;20073;-31
2023/09/11 06:47:49;;;;;;;6.47;5.45;;;22.60;87.50;;;;;;5031825;28;20083;-31
2023/09/11 06:50:15;;;;;;;6.45;5.47;;;22.90;82.10;;;;;;5033569;28;20137;-31
2023/09/11 06:52:42;;;;;;;7.55;5.30;;;22.70;86.70;;;;;;5033051;28;20076;-32
2023/09/11 06:55:10;;;;;;;5.93;5.35;;;22.70;87.50;;;;;;5033945;28;20129;-31
2023/09/11 06:57:40;;;;;;;6.90;5.78;;;22.40;70.70;;;;;;5034085;28;20696;-31
2023/09/11 07:00:10;;;;;;;6.00;5.40;;;22.40;70.60;;;;;;5034091;28;20596;-29
2023/09/11 07:02:38;;;;;;;6.18;5.45;;;;;;;;;;5033920;28;20529;-31
2023/09/11 07:05:05;;;;;;;6.18;5.57;;;22.30;87.20;;;;;;5033914;28;20053;-29
2023/09/11 07:07:32;;;;;;;6.30;5.20;;;22.30;76.00;;;;;;5033907;28;20053;-31
2023/09/11 07:09:58;;;;;;;5.65;5.03;;;22.30;86.50;;;;;;5033860;28;20468;-31
2023/09/11 07:12:26;;;;;;;6.50;5.13;;;22.20;86.60;;;;;;5033715;28;20053;-31
2023/09/11 07:14:55;;;;;;;5.88;5.28;;;22.20;87.30;;;;;;5033987;28;20477;-31
2023/09/11 07:17:22;;;;;;;7.22;5.15;;;;;;;;;;5033863;28;20128;-30
2023/09/11 07:19:49;;;;;;;6.43;5.47;;;22.50;87.00;;;;;;5033604;28;20128;-31
2023/09/11 07:22:15;;;;;;;8.80;5.22;;;22.30;87.00;;;;;;5032390;28;20128;-29
2023/09/11 07:24:42;;;;;;;7.38;5.78;;;;;;;;;;5033881;28;20136;-31
2023/09/11 07:27:09;;;;;;;8.07;5.20;;;;;;;;;;5033398;28;20084;-30
2023/09/11 07:29:37;;;;;;;8.20;5.13;;;22.50;70.90;;;;;;5033631;28;20116;-31
2023/09/11 07:32:05;;;;;;;8.13;5.25;;;22.50;71.00;;;;;;5033361;28;20216;-31
2023/09/11 07:34:31;;;;;;;6.30;5.40;;;22.20;86.80;;;;;;5033610;28;20124;-29
2023/09/11 07:36:58;;;;;;;11.55;5.70;;;;;;;;;;5029210;28;20594;-31
2023/09/11 07:39:25;;;;;;;9.02;5.50;;;22.20;86.70;;;;;;5025827;28;20543;-29
2023/09/11 07:41:52;;;;;;;6.88;5.40;;;23.20;87.30;;;;;;5013719;28;20120;-29
2023/09/11 07:44:19;;;;;;;7.03;5.50;;;;;;;;;;5029637;28;20482;-30
2023/09/11 07:46:47;;;;;;;8.23;5.28;;;22.40;87.60;;;;;;5032489;28;20128;-29
2023/09/11 07:49:14;;;;;;;8.82;5.10;;;21.40;81.20;;;;;;5032681;28;20132;-30
2023/09/11 07:51:41;;;;;;;6.00;4.90;;;;;;;;;;5032508;28;20133;-30
2023/09/11 07:54:07;;;;;;;8.27;5.38;;;22.20;86.70;;;;;;5031415;28;20160;-29
2023/09/11 07:56:34;;;;;;;10.77;5.30;;;;;;;;;;5031032;28;20144;-29
2023/09/11 07:59:02;;;;;;;8.68;5.43;;;;;;;;;;5031192;28;20232;-30
2023/09/11 08:01:28;;;;;;;7.28;5.78;;;22.30;78.70;;;;;;5031018;28;20050;-29
2023/09/11 08:03:56;;;;;;;8.65;4.90;;;22.50;71.10;;;;;;5030927;28;20128;-30
2023/09/11 08:06:24;;;;;;;8.02;5.72;;;;;;;;;;5030817;28;20572;-31
2023/09/11 08:08:50;;;;;;;7.72;5.45;;;22.60;87.10;;;;;;5032951;28;20075;-29
2023/09/11 08:11:19;;;;;;;8.20;5.43;;;22.50;71.20;;;;;;5032863;28;20137;-31
2023/09/11 08:13:46;;;;;;;10.63;5.72;;;22.80;87.00;;;;;;5033063;28;20124;-31
2023/09/11 08:16:13;;;;;;;8.07;5.40;;;22.30;87.20;;;;;;5032787;28;20107;-31
2023/09/11 08:18:40;;;;;;;6.22;5.40;;;22.10;81.00;;;;;;5032339;28;20128;-31
2023/09/11 08:21:08;;;;;;;8.60;5.35;;;22.50;87.20;;;;;;5032512;28;20541;-31
2023/09/11 08:23:35;;;;;;;7.40;5.55;;;22.90;87.40;;;;;;5032576;28;20132;-31
2023/09/11 08:26:02;;;;;;;5.63;5.03;;;21.60;86.60;;;;;;5032397;28;20136;-32
2023/09/11 08:28:29;;;;;;;8.60;5.30;;;22.10;87.50;;;;;;5032598;28;20049;-31
2023/09/11 08:30:55;;;;;;;9.45;5.05;;;22.40;87.00;;;;;;5032500;28;20132;-31
2023/09/11 08:33:23;;;;;;;8.50;5.55;;;;;;;;;;5032384;28;20490;-31
2023/09/11 08:35:50;;;;;;;6.95;5.03;;;;;;;;;;5031873;28;20107;-31
2023/09/11 08:38:18;;;;;;;6.55;5.10;;;22.70;74.80;;;;;;5012606;28;20137;-31
2023/09/11 08:40:45;;;;;;;8.77;5.20;;;22.20;86.20;;;;;;5012530;28;20129;-31
2023/09/11 08:43:12;;;;;;;9.48;5.05;;;22.30;86.50;;;;;;5021452;28;20489;-31
2023/09/11 08:45:39;;;;;;;8.75;5.63;;;;;;;;;;5052114;28;20128;-31
2023/09/11 08:48:08;;;;;;;7.35;5.55;;;22.80;87.20;;;;;;5052070;28;20049;-30
2023/09/11 08:50:36;;;;;;;10.15;5.47;;;21.80;85.20;;;;;;5047771;28;20124;-29
2023/09/11 08:53:03;;;;;;;7.97;5.13;;;23.70;77.70;;;;;;5032241;28;20136;-29
2023/09/11 08:55:33;;;;;;;8.88;5.13;;;21.80;86.30;;;;;;5032111;28;20132;-29
2023/09/11 08:58:02;;;;;;;8.88;5.22;;;21.80;85.70;;;;;;5032208;28;20060;-30
2023/09/11 09:00:31;;;;;;;9.40;5.40;;;22.80;78.30;;;;;;5031784;28;20128;-29
2023/09/11 09:02:58;;;;;;;9.07;4.97;;;23.50;86.90;;;;;;5032200;28;20050;-29
2023/09/11 09:05:25;;;;;;;7.43;5.65;;;22.30;86.50;;;;;;5031898;28;20128;-29
2023/09/11 09:07:51;;;;;;;9.35;4.68;;;23.20;83.00;;;;;;5031734;28;20581;-29
2023/09/11 09:10:18;;;;;;;10.27;5.22;;;22.20;87.10;;;;;;5027485;28;20132;-29
2023/09/11 09:12:46;;;;;;;7.95;5.35;;;22.70;87.00;;;;;;5031875;28;20088;-29
2023/09/11 09:15:14;;;;;;;8.93;5.30;;;22.60;70.80;;;;;;5031716;28;20140;-31
2023/09/11 09:17:40;;;;;;;9.30;5.50;;;23.40;87.10;;;;;;5018023;28;20129;-29
2023/09/11 09:20:08;;;;;;;8.68;5.43;;;22.60;70.90;;;;;;5032075;28;20132;-31
2023/09/11 09:22:35;;;;;;;9.30;5.20;;;22.60;87.00;;;;;;5032041;28;20050;-29
2023/09/11 09:25:02;;;;;;;8.23;5.53;;;22.40;86.50;;;;;;5029322;28;20136;-29
2023/09/11 09:27:30;;;;;;;8.07;5.03;;;22.40;87.30;;;;;;5029648;28;20132;-29
2023/09/11 09:29:58;;;;;;;9.25;5.20;;;23.40;87.60;;;;;;5030737;28;20041;-29
2023/09/11 09:32:25;;;;;;;7.18;5.20;;;22.20;87.20;;;;;;5030747;28;20126;-29
2023/09/11 09:34:53;;;;;;;8.63;5.55;;;22.60;71.00;;;;;;5025937;28;20156;-31
2023/09/11 09:37:21;;;;;;;10.02;5.35;;;22.20;74.80;;;;;;5030551;28;20633;-29
2023/09/11 09:39:48;;;;;;;7.18;5.30;;;22.30;87.40;;;;;;5031765;28;20148;-29
2023/09/11 09:42:15;;;;;;;9.98;5.45;;;22.40;86.60;;;;;;5030975;28;20038;-29
2023/09/11 09:44:44;;;;;;;8.32;5.63;;;22.70;71.10;;;;;;5042133;28;20136;-31
2023/09/11 09:47:13;;;;;;;7.07;5.20;;;22.70;71.00;;;;;;5035344;28;20136;-30
2023/09/11 09:49:44;;;;;;;9.35;5.47;;;22.80;82.00;;;;;;5032410;28;20053;-30
2023/09/11 09:52:11;;;;;;;7.53;5.50;;;22.60;86.80;;;;;;5034627;28;20068;-29
2023/09/11 09:54:42;;;;;;;9.57;5.40;;;21.70;86.30;;;;;;5034948;28;20498;-29
2023/09/11 09:57:10;;;;;;;10.68;5.22;;;23.00;76.10;;;;;;5034813;28;20116;-29
2023/09/11 09:59:37;;;;;;;7.03;5.00;;;;;;;;;;5034661;28;20132;-30
2023/09/11 10:02:05;;;;;;;7.55;5.07;;;22.10;85.60;;;;;;5035067;28;20048;-29
2023/09/11 10:04:33;;;;;;;8.05;5.07;;;22.80;86.10;;;;;;5035359;28;20045;-29
2023/09/11 10:07:00;;;;;;;7.60;4.70;;;22.70;86.40;;;;;;5035054;28;20152;-29
2023/09/11 10:09:27;;;;;;;6.00;4.68;;;;;;;;;;5035076;28;20137;-31
2023/09/11 10:11:54;;;;;;;7.40;5.03;;;23.10;85.40;;;;;;5035165;28;20132;-30
2023/09/11 10:14:21;;;;;;;8.23;5.10;;;22.20;84.80;;;;;;5033386;28;20128;-30
2023/09/11 10:16:47;;;;;;;7.00;4.75;;;23.30;72.70;;;;;;5034791;28;20128;-30
2023/09/11 10:19:16;;;;;;;7.03;4.60;;;23.50;85.20;;;;;;5034703;28;20133;-29
2023/09/11 10:21:44;;;;;;;7.00;4.57;;;23.20;85.00;;;;;;5034272;28;20464;-32
2023/09/11 10:24:11;;;;;;;6.22;5.22;;;23.40;85.40;;;;;;5034778;28;20107;-31
2023/09/11 10:26:44;;;;;;;9.13;4.75;;;24.30;85.80;;;;;;5033943;28;20057;-31
2023/09/11 10:29:11;;;;;;;7.72;4.93;;;23.80;85.90;;;;;;5032423;28;20132;-32
2023/09/11 10:31:43;;;;;;;9.90;4.88;;;23.40;78.20;;;;;;5034338;28;20147;-31
2023/09/11 10:34:10;;;;;;;8.43;5.20;;;;;;;;;;5019537;28;20570;-31
2023/09/11 10:36:38;;;;;;;8.38;4.88;;;23.80;85.70;;;;;;5020844;28;20084;-32
2023/09/11 10:39:06;;;;;;;7.68;5.28;;;23.30;85.00;;;;;;5035059;28;20124;-29
2023/09/11 10:41:33;;;;;;;7.82;4.95;;;23.40;85.00;;;;;;5029613;28;20128;-29
2023/09/11 10:44:00;;;;;;;8.25;5.43;;;;;;;;;;5031903;28;20484;-30
2023/09/11 10:46:34;;;;;;;6.93;4.97;;;22.60;84.00;;;;;;5020492;28;20144;-29
2023/09/11 10:49:01;;;;;;;7.18;4.55;;;23.60;84.60;;;;;;5014855;28;20414;-29
2023/09/11 10:51:28;;;;;;;6.20;4.60;;;23.60;84.60;;;;;;5014438;28;20046;-30
2023/09/11 10:53:55;;;;;;;5.78;4.60;;;23.40;71.40;;;;;;5016041;28;20126;-30
2023/09/11 10:56:23;;;;;;;8.63;5.18;;;24.60;85.00;;;;;;5032851;28;20582;-30
2023/09/11 10:58:51;;;;;;;8.23;5.10;;;23.30;84.30;;;;;;5030366;28;20049;-29
2023/09/11 11:01:18;;;;;;;6.97;5.00;;;23.80;84.40;;;;;;5028851;28;20050;-30
2023/09/11 11:03:45;;;;;;;7.45;5.18;;;24.80;72.80;;;;;;5033901;28;20132;-30
2023/09/11 11:06:12;;;;;;;6.95;4.72;;;24.30;85.20;;;;;;5033945;28;20137;-28
2023/09/11 11:08:40;;;;;;;6.82;4.90;;;23.80;84.10;;;;;;5033762;28;20053;-29
2023/09/11 11:11:18;;;;;;;9.77;5.07;;;23.80;68.80;;;;;;5033331;28;20141;-30
2023/09/11 11:14:18;;;;;;;7.10;4.38;;;24.60;69.50;;;;;;5034194;28;20045;-30
2023/09/11 11:17:00;;;;;;;7.22;5.03;;;24.20;71.10;;;;;;5033584;28;20049;-29
2023/09/11 11:19:28;;;;;;;7.03;4.95;;;23.60;68.50;;;;;;5033956;28;20056;-30
2023/09/11 11:21:55;;;;;;;7.18;4.60;;;24.60;84.30;;;;;;5033617;28;20140;-29
2023/09/11 11:24:23;;;;;;;5.97;4.50;;;24.30;72.50;;;;;;5033704;28;20171;-29
2023/09/11 11:26:49;;;;;;;6.68;4.63;;;24.20;72.20;;;;;;5033414;28;20072;-29
2023/09/11 11:29:18;;;;;;;9.40;4.82;;;23.50;83.90;;;;;;5033700;28;20136;-29
2023/09/11 11:31:44;;;;;;;5.55;4.47;;;23.90;84.30;;;;;;5033402;28;20141;-29
2023/09/11 11:34:11;;;;;;;5.55;4.65;;;23.80;84.00;;;;;;5033617;28;20136;-29
2023/09/11 11:36:39;;;;;;;9.43;4.88;;;23.90;83.70;;;;;;5032823;28;20053;-29
2023/09/11 11:39:06;;;;;;;6.93;4.35;;;24.00;69.10;;;;;;5033304;28;20128;-30
2023/09/11 11:41:32;;;;;;;6.38;5.20;;;23.70;84.10;;;;;;5032880;28;20096;-29
2023/09/11 11:43:59;;;;;;;6.32;4.57;;;23.70;84.00;;;;;;5044477;28;20148;-29
2023/09/11 11:46:28;;;;;;;8.18;4.78;;;24.00;68.50;;;;;;5053645;28;20132;-30
2023/09/11 11:48:55;;;;;;;5.47;4.38;;;;;;;;;;5053262;28;20127;-31
2023/09/11 11:51:29;;;;;;;6.45;4.45;;;24.30;77.10;;;;;;5052603;28;20139;-31
2023/09/11 11:53:56;;;;;;;7.07;4.70;;;;;;;;;;5052538;28;20135;-31
2023/09/11 11:56:23;;;;;;;6.00;4.38;;;24.90;84.80;;;;;;5027085;28;20540;-31
2023/09/11 11:58:50;;;;;;;5.88;4.32;;;23.90;78.30;;;;;;5031373;28;20128;-31
2023/09/11 12:01:17;;;;;;;6.80;4.55;;;23.40;83.90;;;;;;5031455;28;20041;-31
2023/09/11 12:03:49;;;;;;;6.78;4.70;;;23.90;76.80;;;;;;5031564;28;20049;-31
2023/09/11 12:06:16;;;;;;;5.50;4.45;;;24.10;72.50;;;;;;5031888;28;20482;-31
2023/09/11 12:08:44;;;;;;;6.95;4.72;;;;;;;;;;5031456;28;20128;-31
2023/09/11 12:11:11;;;;;;;4.88;4.40;;;23.30;71.80;;;;;;5031532;28;20053;-31
2023/09/11 12:13:37;;;;;;;5.90;4.57;;;23.50;84.30;;;;;;5032075;28;20136;-31
2023/09/11 12:16:04;;;;;;;5.63;4.40;;;23.90;84.10;;;;;;5032645;28;20084;-31
2023/09/11 12:18:35;;;;;;;7.07;4.60;;;24.60;84.70;;;;;;5032796;28;20153;-31
2023/09/11 12:21:04;;;;;;;5.63;4.50;;;24.70;84.90;;;;;;5032446;28;20045;-31
2023/09/11 12:23:31;;;;;;;4.80;4.18;;;23.70;75.10;;;;;;5032596;28;20053;-31
2023/09/11 12:25:58;;;;;;;6.55;4.75;;;24.00;84.40;;;;;;5032211;28;20804;-31
2023/09/11 12:28:25;;;;;;;4.78;4.28;;;24.50;84.30;;;;;;5032607;28;20558;-29
2023/09/11 12:30:52;;;;;;;5.50;4.93;;;25.00;72.40;;;;;;5032255;28;20148;-29
2023/09/11 12:33:22;;;;;;;7.18;4.60;;;24.10;83.70;;;;;;5032444;28;20128;-29
2023/09/11 12:35:51;;;;;;;6.68;4.45;;;25.10;84.10;;;;;;5032533;28;20144;-29
2023/09/11 12:38:20;;;;;;;5.22;4.30;;;24.20;83.60;;;;;;5029977;28;20132;-29
2023/09/11 12:40:48;;;;;;;5.22;4.50;;;;;;;;;;5032273;28;20144;-29
2023/09/11 12:43:15;;;;;;;7.47;4.90;;;24.40;68.80;;;;;;5037128;28;20047;-29
2023/09/11 12:45:42;;;;;;;6.65;4.80;;;;;;;;;;5052212;28;20589;-30
2023/09/11 12:48:10;;;;;;;5.45;4.65;;;;;;;;;;5052021;28;20098;-30
2023/09/11 12:50:39;;;;;;;5.53;4.40;;;24.40;83.60;;;;;;5052279;28;20131;-29
2023/09/11 12:53:05;;;;;;;5.90;4.45;;;24.50;84.40;;;;;;5043041;28;20136;-29
2023/09/11 12:55:33;;;;;;;5.53;4.50;;;24.80;74.10;;;;;;5032116;28;20133;-29
2023/09/11 12:58:01;;;;;;;5.10;4.60;;;24.20;75.50;;;;;;5031932;28;20132;-29
2023/09/11 13:00:28;;;;;;;5.00;4.50;;;24.30;83.50;;;;;;5032110;28;20128;-29
2023/09/11 13:02:57;;;;;;;5.47;4.70;;;23.90;83.20;;;;;;5031770;28;20406;-29
2023/09/11 13:05:24;;;;;;;5.88;4.80;;;23.80;68.00;;;;;;5031966;28;20498;-29
2023/09/11 13:07:50;;;;;;;5.68;4.70;;;23.80;69.00;;;;;;5031744;28;20130;-30